Time;durP1;ratioP1;P1;durP2;ratioP2;P2;SDS_P1;SDS_P2;PMS_P1;PMS_P2;Temp;Humidity;BMP_temperature;BMP_pressure;BME280_temperature;BME280_humidity;BME280_pressure;Samples;Min_cycle;Max_cycle;Signal;HPM_P1;HPM_P2
2021/11/19 00:02:12;;;;;;;14.10;8.82;;;;;;;5.13;64.78;95665.75;5108240;28;20036;-71
2021/11/19 00:04:38;;;;;;;15.52;10.25;;;;;;;5.14;64.97;95672.56;5090059;28;20051;-71
2021/11/19 00:07:03;;;;;;;15.90;10.50;;;;;;;5.02;64.99;95670.59;5107948;28;20097;-71
2021/11/19 00:09:29;;;;;;;15.63;9.80;;;;;;;5.16;64.54;95668.19;5090013;28;20059;-71
2021/11/19 00:11:54;;;;;;;16.45;10.57;;;;;;;5.07;64.54;95663.44;5089825;28;20059;-71
2021/11/19 00:14:20;;;;;;;14.93;9.27;;;;;;;5.08;64.90;95676.25;5106741;28;20081;-71
2021/11/19 00:16:49;;;;;;;15.38;9.63;;;;;;;5.10;64.72;95676.22;5089696;28;20436;-72
2021/11/19 00:19:14;;;;;;;16.00;9.88;;;;;;;5.17;64.57;95680.13;5106854;28;20036;-72
2021/11/19 00:21:40;;;;;;;13.65;9.18;;;;;;;5.06;64.42;95662.63;5072574;28;20043;-72
2021/11/19 00:24:06;;;;;;;13.93;9.55;;;;;;;5.17;64.14;95671.59;5106423;28;20081;-71
2021/11/19 00:26:31;;;;;;;14.70;9.63;;;;;;;5.15;63.81;95659.63;5106517;28;20122;-71
2021/11/19 00:28:58;;;;;;;13.15;9.02;;;;;;;5.24;63.70;95675.53;5089283;28;20060;-71
2021/11/19 00:31:24;;;;;;;14.23;9.48;;;;;;;5.21;63.93;95673.94;5089606;28;20638;-71
2021/11/19 00:33:50;;;;;;;14.80;9.40;;;;;;;5.17;63.91;95671.59;5089138;28;20055;-71
2021/11/19 00:36:17;;;;;;;14.50;9.07;;;;;;;5.22;63.82;95678.19;5059526;28;20065;-72
2021/11/19 00:38:43;;;;;;;14.02;9.48;;;;;;;5.23;63.60;95672.09;5092675;28;20269;-72
2021/11/19 00:41:09;;;;;;;17.80;10.55;;;;;;;5.11;63.73;95670.13;5092608;28;20055;-72
2021/11/19 00:43:35;;;;;;;13.57;9.13;;;;;;;5.18;63.77;95666.34;5075654;28;20044;-71
2021/11/19 00:46:00;;;;;;;14.10;9.38;;;;;;;5.20;63.90;95674.84;5075668;28;20425;-72
2021/11/19 00:48:26;;;;;;;11.90;9.05;;;;;;;5.18;63.57;95680.97;5092455;28;20122;-73
2021/11/19 00:51:14;;;;;;;15.18;9.90;;;;;;;5.10;63.44;95664.16;5058827;28;20121;-71
2021/11/19 00:53:42;;;;;;;15.32;10.40;;;;;;;5.19;63.44;95683.47;5092084;28;20044;-71
2021/11/19 00:56:09;;;;;;;15.57;9.85;;;;;;;5.25;62.66;95683.19;5092294;28;20024;-71
2021/11/19 00:58:34;;;;;;;15.77;10.43;;;;;;;5.19;62.69;95678.34;5058857;28;20025;-71
2021/11/19 01:01:06;;;;;;;15.25;9.82;;;;;;;5.23;62.54;95673.84;5075383;28;20152;-71
2021/11/19 01:03:31;;;;;;;15.82;10.50;;;;;;;5.26;62.71;95677.13;5075827;28;20032;-71
2021/11/19 01:05:57;;;;;;;14.15;10.05;;;;;;;5.14;62.46;95650.22;5075074;28;20036;-71
2021/11/19 01:08:23;;;;;;;18.65;11.13;;;;;;;5.27;62.60;95685.69;5092041;28;20032;-71
2021/11/19 01:10:49;;;;;;;18.20;11.63;;;;;;;5.26;63.04;95678.84;5091948;28;20064;-72
2021/11/19 01:13:15;;;;;;;14.55;10.45;;;;;;;5.27;63.21;95683.94;5075149;28;20440;-72
2021/11/19 01:15:48;;;;;;;13.77;10.02;;;;;;;5.26;62.92;95684.84;5091942;28;20030;-71
2021/11/19 01:18:18;;;;;;;16.58;10.57;;;;;;;5.33;63.01;95681.06;5091813;28;20032;-72
2021/11/19 01:20:56;;;;;;;15.13;10.13;;;;;;;5.32;63.11;95682.00;5075131;28;20042;-71
2021/11/19 01:23:22;;;;;;;13.77;10.15;;;;;;;5.31;63.27;95682.88;5075597;28;20054;-71
2021/11/19 01:25:56;;;;;;;18.48;11.13;;;;;;;5.24;63.35;95671.22;5074908;28;20031;-71
2021/11/19 01:28:22;;;;;;;14.52;9.70;;;;;;;5.18;63.57;95671.50;5075614;28;20044;-71
2021/11/19 01:30:53;;;;;;;15.85;10.63;;;;;;;5.28;63.46;95683.03;5091561;28;20032;-71
2021/11/19 01:33:18;;;;;;;14.52;9.35;;;;;;;5.31;63.46;95679.47;5075215;28;20061;-71
2021/11/19 01:35:44;;;;;;;14.43;10.15;;;;;;;5.22;63.65;95673.03;5074642;28;20032;-72
2021/11/19 01:38:09;;;;;;;15.10;9.68;;;;;;;5.27;63.42;95670.25;5074600;28;20036;-71
2021/11/19 01:40:39;;;;;;;16.23;10.35;;;;;;;5.29;63.46;95679.56;5091498;28;20481;-71
2021/11/19 01:43:06;;;;;;;17.35;12.25;;;;;;;5.31;63.41;95671.75;5091233;28;20504;-71
2021/11/19 01:45:37;;;;;;;13.52;10.00;;;;;;;5.29;63.71;95668.41;5057833;28;20032;-71
2021/11/19 01:48:03;;;;;;;;;;;;;;;5.31;63.83;95667.41;5074557;28;20583;-71
2021/11/19 01:50:44;;;;;;;17.83;10.80;;;;;;;5.30;63.89;95667.50;5091281;28;19947;-72
2021/11/19 01:53:13;;;;;;;14.60;9.67;;;;;;;5.26;64.12;95658.25;5092433;28;20490;-71
2021/11/19 01:55:42;;;;;;;15.27;10.23;;;;;;;5.22;64.04;95660.16;5092604;28;20094;-72
2021/11/19 01:58:10;;;;;;;13.70;9.45;;;;;;;5.17;64.35;95653.56;5057667;28;20497;-72
2021/11/19 02:00:46;;;;;;;15.85;10.15;;;;;;;5.17;64.45;95645.81;5057683;28;20116;-71
2021/11/19 02:03:13;;;;;;;15.05;9.85;;;;;;;5.17;64.26;95644.06;5075153;28;20036;-71
2021/11/19 02:05:59;;;;;;;17.33;10.60;;;;;;;5.18;64.22;95645.72;5074195;28;20176;-72
2021/11/19 02:08:25;;;;;;;18.23;10.85;;;;;;;5.25;64.26;95662.56;5091042;28;20040;-71
2021/11/19 02:10:55;;;;;;;16.40;10.70;;;;;;;5.28;64.39;95666.75;5074022;28;20107;-71
2021/11/19 02:13:21;;;;;;;16.33;11.25;;;;;;;5.30;64.25;95655.47;5090779;28;20031;-71
2021/11/19 02:15:53;;;;;;;15.05;10.07;;;;;;;5.29;64.37;95663.25;5091956;28;20417;-71
2021/11/19 02:18:26;;;;;;;14.48;9.73;;;;;;;5.29;64.56;95655.53;5074129;28;20024;-71
2021/11/19 02:20:59;;;;;;;14.82;8.75;;;;;;;5.32;63.96;95658.81;5057481;28;20031;-71
2021/11/19 02:23:37;;;;;;;14.40;9.13;;;;;;;5.23;64.03;95638.63;5057648;28;20039;-71
2021/11/19 02:26:07;;;;;;;13.55;9.38;;;;;;;5.32;64.01;95647.63;5074102;28;20035;-71
2021/11/19 02:28:34;;;;;;;15.32;9.70;;;;;;;5.32;64.05;95645.06;5057312;28;20028;-71
2021/11/19 02:31:11;;;;;;;13.70;9.05;;;;;;;5.35;63.91;95653.50;5090444;28;20031;-71
2021/11/19 02:33:38;;;;;;;13.13;8.80;;;;;;;5.31;63.96;95646.81;5073357;28;20539;-72
2021/11/19 02:36:08;;;;;;;11.20;8.20;;;;;;;5.36;63.87;95647.41;5073588;28;20535;-71
2021/11/19 02:38:39;;;;;;;15.73;10.38;;;;;;;5.30;63.98;95645.16;5073696;28;20123;-72
2021/11/19 02:41:05;;;;;;;12.50;8.98;;;;;;;5.34;64.17;95651.81;5090280;28;20028;-72
2021/11/19 02:43:40;;;;;;;11.10;8.30;;;;;;;5.07;64.16;95611.94;5056709;28;20503;-72
2021/11/19 02:46:05;;;;;;;13.27;9.68;;;;;;;5.25;64.31;95656.59;5073246;28;20030;-72
2021/11/19 02:48:33;;;;;;;12.73;9.35;;;;;;;5.22;64.28;95649.84;5091574;28;20032;-72
2021/11/19 02:51:00;;;;;;;13.25;9.23;;;;;;;5.17;64.25;95643.25;5073386;28;20051;-72
2021/11/19 02:53:26;;;;;;;12.45;8.70;;;;;;;5.23;64.08;95648.91;5073394;28;20485;-72
2021/11/19 02:55:53;;;;;;;10.80;7.82;;;;;;;5.26;63.89;95658.25;5090034;28;20028;-72
2021/11/19 02:58:24;;;;;;;12.40;8.50;;;;;;;5.26;63.78;95648.78;5089723;28;20089;-72
2021/11/19 03:01:07;;;;;;;13.55;9.27;;;;;;;5.29;63.92;95651.22;5073321;28;20066;-72
2021/11/19 03:03:34;;;;;;;12.15;8.43;;;;;;;5.30;63.81;95660.63;5089943;28;20032;-72
2021/11/19 03:06:00;;;;;;;10.32;7.47;;;;;;;5.10;63.87;95624.69;5089795;28;20036;-72
2021/11/19 03:08:26;;;;;;;13.00;8.48;;;;;;;5.36;62.76;95650.00;5089919;28;20469;-72
2021/11/19 03:10:55;;;;;;;14.23;9.63;;;;;;;5.38;62.08;95652.50;5073017;28;20051;-72
2021/11/19 03:13:20;;;;;;;12.38;8.98;;;;;;;5.34;61.82;95644.09;5073309;28;20115;-72
2021/11/19 03:15:47;;;;;;;13.57;9.98;;;;;;;5.30;61.94;95642.56;5091298;28;20050;-72
2021/11/19 03:18:16;;;;;;;15.63;10.20;;;;;;;5.28;61.50;95630.69;5072953;28;20032;-72
2021/11/19 03:20:43;;;;;;;14.13;9.52;;;;;;;5.34;61.01;95638.09;5073081;28;20028;-72
2021/11/19 03:23:08;;;;;;;15.27;9.82;;;;;;;5.23;60.05;95635.22;5072871;28;20054;-72
2021/11/19 03:25:37;;;;;;;13.52;9.88;;;;;;;5.33;59.85;95645.00;5089865;28;20028;-72
2021/11/19 03:28:03;;;;;;;15.02;10.10;;;;;;;5.33;59.63;95634.69;5073194;28;20032;-72
2021/11/19 03:30:29;;;;;;;14.50;10.68;;;;;;;5.07;59.84;95607.66;5090899;28;20032;-72
2021/11/19 03:32:54;;;;;;;14.88;10.15;;;;;;;5.16;60.13;95634.69;5072810;28;20032;-71
2021/11/19 03:35:21;;;;;;;17.88;11.20;;;;;;;5.16;60.39;95645.00;5090978;28;20094;-72
2021/11/19 03:37:47;;;;;;;16.17;11.40;;;;;;;5.19;60.39;95634.53;5090810;28;20016;-72
2021/11/19 03:40:15;;;;;;;16.08;11.50;;;;;;;5.16;60.75;95637.28;5056105;28;20434;-72
2021/11/19 03:42:41;;;;;;;20.40;11.93;;;;;;;5.10;61.11;95632.41;5056250;28;20433;-72
2021/11/19 03:45:08;;;;;;;17.35;12.48;;;;;;;5.22;61.03;95651.59;5055910;28;20028;-72
2021/11/19 03:47:37;;;;;;;18.38;12.15;;;;;;;5.19;61.33;95644.00;5055964;28;20538;-72
2021/11/19 03:50:10;;;;;;;16.90;11.52;;;;;;;5.18;61.12;95634.59;5089361;28;20024;-72
2021/11/19 03:52:37;;;;;;;20.55;12.15;;;;;;;5.20;61.46;95643.94;5072841;28;20514;-72
2021/11/19 03:55:12;;;;;;;20.00;11.90;;;;;;;5.25;61.32;95644.53;5072721;28;20425;-72
2021/11/19 03:57:37;;;;;;;15.70;10.85;;;;;;;5.24;61.00;95640.31;5089524;28;20028;-72
2021/11/19 04:00:30;;;;;;;16.00;11.05;;;;;;;5.24;60.38;95637.72;5072430;28;20499;-72
2021/11/19 04:02:56;;;;;;;15.65;10.52;;;;;;;5.13;60.22;95622.78;5056307;28;20047;-72
2021/11/19 04:05:22;;;;;;;14.30;10.48;;;;;;;5.22;59.91;95636.13;5072557;28;20405;-72
2021/11/19 04:07:47;;;;;;;16.33;10.75;;;;;;;5.14;59.41;95627.03;5090433;28;20044;-72
2021/11/19 04:10:13;;;;;;;14.23;10.20;;;;;;;5.14;59.49;95631.34;5090585;28;20021;-72
2021/11/19 04:12:39;;;;;;;15.75;11.13;;;;;;;5.20;59.27;95625.88;5093101;28;20035;-72
2021/11/19 04:15:05;;;;;;;13.93;10.05;;;;;;;5.29;58.49;95627.19;5076086;28;20470;-72
2021/11/19 04:17:31;;;;;;;15.45;10.70;;;;;;;5.18;58.15;95607.09;5092931;28;20051;-72
2021/11/19 04:19:56;;;;;;;16.20;10.93;;;;;;;5.25;58.26;95618.78;5075939;28;20024;-72
2021/11/19 04:22:22;;;;;;;14.23;10.23;;;;;;;5.14;58.29;95613.31;5076031;28;20066;-72
2021/11/19 04:24:50;;;;;;;13.10;10.18;;;;;;;5.22;58.46;95621.50;5092625;28;20437;-72
2021/11/19 04:27:16;;;;;;;17.20;11.23;;;;;;;5.28;58.58;95628.09;5076211;28;20405;-71
2021/11/19 04:29:41;;;;;;;16.48;10.55;;;;;;;5.23;58.37;95617.19;5092951;28;20055;-72
2021/11/19 04:32:09;;;;;;;14.38;10.68;;;;;;;5.31;58.76;95626.19;5093004;28;20039;-72
2021/11/19 04:34:34;;;;;;;18.05;11.00;;;;;;;5.26;58.62;95627.34;5092451;28;20067;-72
2021/11/19 04:36:59;;;;;;;14.45;11.00;;;;;;;5.29;58.48;95622.88;5092688;28;20028;-72
2021/11/19 04:39:25;;;;;;;16.30;10.80;;;;;;;5.30;58.77;95627.13;5076013;28;20036;-72
2021/11/19 04:41:50;;;;;;;15.35;10.82;;;;;;;5.29;58.66;95628.03;5058964;28;20028;-72
2021/11/19 04:44:16;;;;;;;16.58;11.27;;;;;;;5.31;58.94;95631.34;5075685;28;20063;-72
2021/11/19 04:46:42;;;;;;;17.30;10.88;;;;;;;5.18;58.53;95612.25;5092457;28;20028;-72
2021/11/19 04:49:07;;;;;;;16.00;11.23;;;;;;;5.29;58.70;95630.63;5075795;28;20043;-72
2021/11/19 04:51:34;;;;;;;22.50;11.45;;;;;;;5.26;58.58;95617.84;5058828;28;20437;-71
2021/11/19 04:53:59;;;;;;;16.58;11.05;;;;;;;5.32;58.54;95617.59;5093761;28;20036;-72
2021/11/19 04:56:25;;;;;;;17.25;11.13;;;;;;;5.29;58.49;95629.75;5092327;28;20542;-72
2021/11/19 04:58:51;;;;;;;15.10;10.90;;;;;;;5.35;58.00;95629.47;5075409;28;20036;-72
2021/11/19 05:01:22;;;;;;;15.93;11.60;;;;;;;5.40;57.28;95624.06;5092202;28;20409;-72
2021/11/19 05:03:47;;;;;;;17.83;12.00;;;;;;;5.35;57.09;95625.16;5059074;28;20044;-71
2021/11/19 05:06:13;;;;;;;15.60;10.88;;;;;;;5.32;57.67;95619.28;5092121;28;20208;-72
2021/11/19 05:08:38;;;;;;;14.32;10.75;;;;;;;5.34;57.75;95630.38;5075286;28;20035;-72
2021/11/19 05:11:05;;;;;;;14.65;10.48;;;;;;;5.34;57.35;95626.03;5092204;28;20028;-72
2021/11/19 05:13:31;;;;;;;15.68;11.35;;;;;;;5.34;57.21;95632.94;5058397;28;20032;-72
2021/11/19 05:15:57;;;;;;;15.50;10.60;;;;;;;5.33;56.75;95623.56;5075169;28;20378;-72
2021/11/19 05:18:24;;;;;;;15.65;11.40;;;;;;;5.33;56.78;95629.53;5091882;28;20119;-72
2021/11/19 05:20:50;;;;;;;16.58;10.73;;;;;;;5.37;57.05;95643.09;5074984;28;20049;-72
2021/11/19 05:23:16;;;;;;;15.70;10.23;;;;;;;5.33;56.98;95644.19;5091733;28;20137;-72
2021/11/19 05:25:43;;;;;;;14.85;10.20;;;;;;;5.34;56.69;95633.78;5074948;28;20081;-73
2021/11/19 05:28:09;;;;;;;15.60;10.77;;;;;;;5.26;56.47;95633.31;5058502;28;20398;-73
2021/11/19 05:30:34;;;;;;;14.55;10.20;;;;;;;5.32;56.91;95639.91;5074854;28;20039;-73
2021/11/19 05:33:00;;;;;;;14.25;9.60;;;;;;;5.30;56.37;95637.44;5074572;28;20396;-73
2021/11/19 05:35:25;;;;;;;13.77;9.65;;;;;;;5.33;56.00;95639.84;5091555;28;20028;-74
2021/11/19 05:37:51;;;;;;;12.65;9.52;;;;;;;5.36;55.07;95634.53;5057783;28;20063;-72
2021/11/19 05:40:18;;;;;;;14.32;9.13;;;;;;;5.34;55.42;95636.34;5074625;28;20027;-73
2021/11/19 05:42:44;;;;;;;14.63;9.88;;;;;;;5.38;55.51;95642.22;5074591;28;20024;-73
2021/11/19 05:45:10;;;;;;;12.85;9.13;;;;;;;5.40;55.06;95647.28;5091509;28;20038;-73
2021/11/19 05:47:35;;;;;;;16.40;10.35;;;;;;;5.34;55.22;95651.81;5074447;28;20432;-73
2021/11/19 05:50:03;;;;;;;13.07;9.57;;;;;;;5.38;55.17;95655.09;5074356;28;20020;-73
2021/11/19 05:52:28;;;;;;;12.93;9.27;;;;;;;5.27;55.55;95640.16;5074860;28;20028;-73
2021/11/19 05:54:54;;;;;;;12.98;9.40;;;;;;;5.29;55.05;95645.22;5074193;28;20050;-73
2021/11/19 05:57:19;;;;;;;13.80;8.52;;;;;;;5.41;54.86;95656.69;5074281;28;20032;-73
2021/11/19 05:59:45;;;;;;;13.63;9.20;;;;;;;5.41;54.54;95651.53;5074315;28;20070;-73
2021/11/19 06:02:13;;;;;;;13.95;9.52;;;;;;;5.38;53.81;95655.91;5091034;28;20481;-73
2021/11/19 06:04:38;;;;;;;13.05;8.18;;;;;;;5.33;53.38;95647.56;5074106;28;20040;-73
2021/11/19 06:07:04;;;;;;;15.38;8.88;;;;;;;5.35;53.58;95648.34;5074102;28;20295;-73
2021/11/19 06:09:31;;;;;;;13.05;7.68;;;;;;;5.26;52.84;95637.63;5090965;28;20047;-73
2021/11/19 06:12:05;;;;;;;13.20;7.97;;;;;;;5.45;52.13;95659.03;5090901;28;20032;-74
2021/11/19 06:14:32;;;;;;;10.73;6.70;;;;;;;5.50;50.49;95656.22;5073985;28;20036;-71
2021/11/19 06:17:01;;;;;;;11.23;5.90;;;;;;;5.38;50.41;95652.50;5090708;28;20497;-71
2021/11/19 06:19:31;;;;;;;10.63;6.90;;;;;;;5.34;50.81;95658.72;5074039;28;20486;-70
2021/11/19 06:22:01;;;;;;;7.85;5.57;;;;;;;5.47;49.90;95666.69;5057394;28;20474;-72
2021/11/19 06:24:29;;;;;;;11.18;6.03;;;;;;;5.38;49.92;95650.78;5074232;28;20044;-71
2021/11/19 06:26:55;;;;;;;10.57;6.97;;;;;;;5.43;49.99;95654.84;5090566;28;20143;-70
2021/11/19 06:29:20;;;;;;;9.18;6.22;;;;;;;5.50;49.93;95661.38;5073709;28;20020;-71
2021/11/19 06:31:49;;;;;;;10.85;6.68;;;;;;;5.49;49.66;95667.44;5091624;28;20036;-72
2021/11/19 06:34:14;;;;;;;10.25;6.57;;;;;;;5.48;49.76;95666.59;5073180;28;20055;-71
2021/11/19 06:36:43;;;;;;;10.35;6.60;;;;;;;5.45;49.76;95659.03;5073608;28;20410;-70
2021/11/19 06:39:09;;;;;;;9.65;6.30;;;;;;;5.43;50.11;95660.00;5090436;28;20039;-73
2021/11/19 06:41:34;;;;;;;10.15;6.03;;;;;;;5.56;49.91;95671.38;5073344;28;20480;-73
2021/11/19 06:44:00;;;;;;;8.95;5.82;;;;;;;5.53;50.12;95667.22;5073188;28;20047;-73
2021/11/19 06:46:25;;;;;;;10.07;6.45;;;;;;;5.60;50.31;95668.59;5091477;28;20028;-71
2021/11/19 06:48:51;;;;;;;10.95;7.00;;;;;;;5.63;50.26;95667.59;5090199;28;20031;-72
2021/11/19 06:51:17;;;;;;;13.70;8.68;;;;;;;5.65;50.80;95676.06;5056595;28;20431;-72
2021/11/19 06:53:42;;;;;;;13.68;7.72;;;;;;;5.75;50.35;95682.44;5056453;28;20028;-73
2021/11/19 06:56:08;;;;;;;10.57;7.45;;;;;;;5.74;50.50;95667.91;5091433;28;20077;-73
2021/11/19 06:58:34;;;;;;;11.80;7.03;;;;;;;5.80;50.16;95669.34;5091387;28;20044;-73
2021/11/19 07:01:01;;;;;;;13.00;7.47;;;;;;;5.81;50.57;95676.97;5075651;28;20032;-73
2021/11/19 07:03:26;;;;;;;11.40;7.72;;;;;;;5.72;51.06;95671.47;5052987;28;20040;-73
2021/11/19 07:05:52;;;;;;;10.40;7.38;;;;;;;5.72;50.93;95664.56;5078808;28;20421;-73
2021/11/19 07:08:17;;;;;;;10.80;8.02;;;;;;;5.76;50.74;95671.22;5079031;28;20090;-73
2021/11/19 07:10:46;;;;;;;10.95;7.40;;;;;;;5.74;51.05;95652.44;5062604;28;20489;-72
2021/11/19 07:13:13;;;;;;;11.48;7.68;;;;;;;5.63;51.04;95622.91;5056490;28;20094;-73
2021/11/19 07:15:38;;;;;;;13.05;8.40;;;;;;;5.83;51.45;95662.28;5073219;28;20032;-73
2021/11/19 07:18:04;;;;;;;10.23;7.20;;;;;;;5.84;51.15;95665.69;5072812;28;20040;-72
2021/11/19 07:20:30;;;;;;;10.30;7.30;;;;;;;5.92;51.11;95660.97;5091042;28;20077;-72
2021/11/19 07:22:57;;;;;;;9.85;6.80;;;;;;;6.02;50.36;95663.94;5072692;28;20036;-72
2021/11/19 07:25:24;;;;;;;10.88;7.18;;;;;;;5.94;50.89;95656.59;5089672;28;20412;-72
2021/11/19 07:27:53;;;;;;;10.43;7.45;;;;;;;5.98;50.98;95654.69;5056751;28;20043;-72
2021/11/19 07:30:20;;;;;;;11.07;7.25;;;;;;;5.95;50.63;95644.53;5090850;28;20028;-72
2021/11/19 07:32:46;;;;;;;11.95;7.40;;;;;;;6.03;50.91;95652.72;5072956;28;20016;-72
2021/11/19 07:35:11;;;;;;;13.25;7.40;;;;;;;5.97;50.86;95661.59;5089696;28;20059;-72
2021/11/19 07:37:39;;;;;;;10.90;6.95;;;;;;;6.06;50.68;95675.75;5072739;28;20032;-72
2021/11/19 07:40:09;;;;;;;10.52;7.35;;;;;;;5.91;51.10;95653.31;5072917;28;20504;-72
2021/11/19 07:42:35;;;;;;;11.35;7.85;;;;;;;5.99;51.09;95664.09;5072745;28;20063;-72
2021/11/19 07:45:00;;;;;;;12.38;8.23;;;;;;;5.85;51.50;95645.88;5073583;28;20048;-72
2021/11/19 07:47:25;;;;;;;10.68;7.35;;;;;;;5.93;51.28;95652.34;5076760;28;20027;-72
2021/11/19 07:49:51;;;;;;;11.93;7.57;;;;;;;5.96;51.42;95662.53;5093687;28;20413;-71
2021/11/19 07:52:16;;;;;;;13.48;7.80;;;;;;;5.96;52.02;95678.00;5060006;28;20468;-72
2021/11/19 07:54:42;;;;;;;10.68;7.65;;;;;;;6.02;51.73;95675.09;5059979;28;20032;-72
2021/11/19 07:57:07;;;;;;;14.13;8.40;;;;;;;6.07;52.09;95676.59;5059833;28;20020;-72
2021/11/19 07:59:34;;;;;;;13.00;8.50;;;;;;;6.09;52.16;95669.63;5095020;28;20032;-72
2021/11/19 08:02:00;;;;;;;10.85;7.40;;;;;;;6.15;52.10;95675.28;5076647;28;20024;-72
2021/11/19 08:04:26;;;;;;;9.68;7.35;;;;;;;6.17;52.44;95667.47;5076391;28;20040;-72
2021/11/19 08:06:52;;;;;;;14.20;8.90;;;;;;;6.26;52.37;95675.56;5076478;28;20020;-72
2021/11/19 08:09:18;;;;;;;18.38;10.45;;;;;;;6.23;51.88;95669.72;5059722;28;20566;-72
2021/11/19 08:11:43;;;;;;;13.98;8.93;;;;;;;6.28;52.21;95685.81;5076290;28;20028;-72
2021/11/19 08:14:09;;;;;;;15.15;10.00;;;;;;;6.36;52.09;95682.84;5075959;28;20028;-72
2021/11/19 08:16:43;;;;;;;18.67;10.20;;;;;;;6.36;51.69;95677.69;5076332;28;20039;-72
2021/11/19 08:19:16;;;;;;;15.88;9.40;;;;;;;6.40;51.74;95674.00;5077224;28;20111;-73
2021/11/19 08:21:41;;;;;;;14.60;8.40;;;;;;;6.47;51.81;95678.78;5071406;28;20024;-73
2021/11/19 08:24:07;;;;;;;20.83;9.00;;;;;;;6.52;51.45;95682.84;5092709;28;20089;-73
2021/11/19 08:26:37;;;;;;;10.95;8.00;;;;;;;6.47;51.73;95686.53;5091256;28;20505;-73
2021/11/19 08:29:07;;;;;;;11.48;8.30;;;;;;;6.59;51.91;95682.44;5092974;28;20114;-73
2021/11/19 08:31:33;;;;;;;11.93;7.50;;;;;;;6.58;51.72;95677.38;5092875;28;20089;-73
2021/11/19 08:33:58;;;;;;;11.48;7.97;;;;;;;6.62;51.28;95674.53;5058931;28;20056;-73
2021/11/19 08:36:28;;;;;;;11.23;7.70;;;;;;;6.66;51.67;95685.56;5092815;28;20039;-73
2021/11/19 08:38:54;;;;;;;11.38;8.05;;;;;;;6.62;51.43;95671.13;5059373;28;20058;-73
2021/11/19 08:41:20;;;;;;;15.15;8.57;;;;;;;6.64;51.59;95671.88;5092633;28;20028;-73
2021/11/19 08:43:47;;;;;;;25.27;10.50;;;;;;;6.68;51.63;95661.28;5058986;28;20535;-73
2021/11/19 08:46:15;;;;;;;16.42;8.73;;;;;;;6.60;51.70;95662.63;5075718;28;20417;-73
2021/11/19 08:48:41;;;;;;;15.60;8.68;;;;;;;6.79;51.88;95680.53;5075712;28;20101;-73
2021/11/19 08:51:09;;;;;;;13.93;8.48;;;;;;;6.90;51.68;95676.47;5092399;28;20020;-73
2021/11/19 08:53:35;;;;;;;13.35;7.90;;;;;;;6.91;51.21;95659.22;5092349;28;20064;-73
2021/11/19 08:56:01;;;;;;;15.88;9.70;;;;;;;6.94;51.20;95677.16;5075007;28;20538;-71
2021/11/19 08:58:29;;;;;;;13.80;8.45;;;;;;;6.93;51.34;95672.88;5092336;28;20028;-71
2021/11/19 09:00:56;;;;;;;18.73;11.45;;;;;;;6.94;51.21;95666.81;5058907;28;20035;-73
2021/11/19 09:03:22;;;;;;;21.17;14.40;;;;;;;6.97;51.37;95668.41;5075352;28;20039;-71
2021/11/19 09:05:49;;;;;;;20.02;14.40;;;;;;;6.81;51.53;95625.31;5058544;28;20081;-73
2021/11/19 09:08:16;;;;;;;18.58;10.15;;;;;;;6.97;51.51;95661.47;5092093;28;20097;-73
2021/11/19 09:10:42;;;;;;;14.88;10.45;;;;;;;7.03;50.87;95660.31;5075322;28;20085;-73
2021/11/19 09:13:08;;;;;;;15.38;8.75;;;;;;;6.91;51.12;95643.72;5058329;28;20032;-73
2021/11/19 09:15:33;;;;;;;11.77;8.65;;;;;;;6.88;51.37;95654.22;5058398;28;20051;-73
2021/11/19 09:18:06;;;;;;;13.93;8.93;;;;;;;6.89;51.56;95661.06;5093088;28;20036;-73
2021/11/19 09:20:46;;;;;;;12.63;8.68;;;;;;;6.87;52.00;95649.97;5075016;28;20489;-74
2021/11/19 09:23:20;;;;;;;11.98;8.35;;;;;;;6.78;51.98;95647.91;5091724;28;20081;-74
2021/11/19 09:25:47;;;;;;;13.23;9.32;;;;;;;6.77;52.30;95630.72;5075649;28;20494;-74
2021/11/19 09:28:13;;;;;;;15.57;9.60;;;;;;;6.89;52.48;95630.06;5091681;28;20476;-74
2021/11/19 09:30:41;;;;;;;14.45;10.05;;;;;;;6.93;52.22;95626.38;5091702;28;20111;-74
2021/11/19 09:33:09;;;;;;;13.57;9.82;;;;;;;7.03;52.13;95631.88;5074667;28;20532;-74
2021/11/19 09:35:35;;;;;;;12.70;8.80;;;;;;;7.14;51.75;95619.19;5075049;28;20024;-74
2021/11/19 09:38:01;;;;;;;13.70;8.82;;;;;;;7.16;51.52;95614.78;5091488;28;20044;-73
2021/11/19 09:40:36;;;;;;;14.50;8.30;;;;;;;7.24;51.47;95614.31;5074465;28;20035;-74
2021/11/19 09:43:34;;;;;;;12.23;8.82;;;;;;;7.33;51.33;95608.66;5074559;28;20075;-74
2021/11/19 09:46:28;;;;;;;11.30;8.02;;;;;;;7.42;49.91;95609.88;5082446;28;20032;-74
2021/11/19 09:49:05;;;;;;;12.13;8.48;;;;;;;7.32;50.18;95607.78;5074683;28;20036;-74
2021/11/19 09:51:52;;;;;;;15.75;8.20;;;;;;;7.28;50.36;95605.50;5092486;28;20047;-74
2021/11/19 09:54:55;;;;;;;13.38;8.00;;;;;;;7.33;49.53;95601.72;5092740;28;20166;-73
2021/11/19 09:57:28;;;;;;;12.90;7.93;;;;;;;7.28;50.20;95602.91;5091515;28;20028;-73
2021/11/19 10:00:12;;;;;;;11.00;7.97;;;;;;;7.30;50.59;95588.97;5091136;28;20032;-74
2021/11/19 10:03:05;;;;;;;13.20;9.00;;;;;;;7.41;50.62;95588.34;5074510;28;20089;-75
2021/11/19 10:05:36;;;;;;;12.25;8.73;;;;;;;7.67;50.63;95583.41;5092541;28;20489;-74
2021/11/19 10:08:29;;;;;;;9.13;7.38;;;;;;;7.90;49.48;95582.84;5090247;28;20424;-75
2021/11/19 10:11:30;;;;;;;10.43;7.75;;;;;;;7.98;49.34;95569.47;5092125;28;20110;-74
2021/11/19 10:14:20;;;;;;;12.07;8.60;;;;;;;8.10;48.74;95567.88;5052619;28;20063;-74
2021/11/19 10:17:01;;;;;;;10.07;7.35;;;;;;;8.05;48.81;95562.97;5089236;28;20452;-74
2021/11/19 10:20:03;;;;;;;14.05;8.95;;;;;;;8.05;48.76;95544.88;5090771;28;20038;-73
2021/11/19 10:22:35;;;;;;;12.57;8.85;;;;;;;7.93;48.34;95556.81;5090568;28;20036;-74
2021/11/19 10:25:12;;;;;;;12.63;8.07;;;;;;;7.83;48.95;95546.19;5057100;28;20036;-72
2021/11/19 10:27:43;;;;;;;14.10;10.43;;;;;;;7.79;48.53;95541.28;5073193;28;20031;-72
2021/11/19 10:30:27;;;;;;;11.15;8.85;;;;;;;7.86;48.18;95546.94;5074242;28;20024;-74
2021/11/19 10:32:54;;;;;;;10.05;7.88;;;;;;;7.90;47.17;95525.94;5073454;28;20134;-74
2021/11/19 10:35:45;;;;;;;10.05;6.63;;;;;;;7.99;47.41;95527.13;5073828;28;20070;-73
2021/11/19 10:38:38;;;;;;;9.93;6.43;;;;;;;8.15;46.98;95520.09;5073741;28;20525;-73
2021/11/19 10:41:31;;;;;;;9.93;7.18;;;;;;;8.28;46.79;95521.00;5090422;28;20028;-74
2021/11/19 10:44:18;;;;;;;8.13;5.93;;;;;;;8.30;46.45;95510.53;5091853;28;20118;-74
2021/11/19 10:47:20;;;;;;;9.60;5.68;;;;;;;8.34;46.29;95514.59;5091535;28;20028;-73
2021/11/19 10:50:07;;;;;;;10.90;6.15;;;;;;;8.43;46.39;95511.47;5091952;28;20028;-72
2021/11/19 10:52:57;;;;;;;11.23;6.55;;;;;;;8.59;46.09;95513.91;5091449;28;20070;-74
2021/11/19 10:55:47;;;;;;;10.80;6.00;;;;;;;8.74;45.43;95512.09;5090332;28;20016;-72
2021/11/19 10:58:42;;;;;;;9.05;6.20;;;;;;;8.70;45.83;95519.22;5091378;28;20115;-73
2021/11/19 11:01:21;;;;;;;9.02;6.22;;;;;;;8.78;45.45;95523.09;5086781;28;20040;-72
2021/11/19 11:04:28;;;;;;;9.05;6.28;;;;;;;8.73;45.43;95506.09;5090003;28;20028;-73
2021/11/19 11:07:08;;;;;;;9.77;6.97;;;;;;;8.80;45.45;95510.88;5090318;28;20560;-73
2021/11/19 11:09:40;;;;;;;9.23;6.15;;;;;;;8.86;45.64;95507.88;5075304;28;20036;-73
2021/11/19 11:12:16;;;;;;;10.57;6.30;;;;;;;8.94;45.33;95514.25;5073102;28;20031;-73
2021/11/19 11:14:44;;;;;;;9.15;6.05;;;;;;;8.97;45.74;95500.25;5091531;28;20036;-73
2021/11/19 11:17:23;;;;;;;9.48;6.78;;;;;;;9.14;45.11;95501.72;5073175;28;20028;-73
2021/11/19 11:19:49;;;;;;;9.65;6.95;;;;;;;9.10;44.45;95495.06;5072545;28;20101;-73
2021/11/19 11:22:17;;;;;;;8.10;6.03;;;;;;;9.03;44.88;95486.06;5090051;28;20076;-73
2021/11/19 11:24:53;;;;;;;11.07;6.85;;;;;;;8.95;44.94;95479.59;5073221;28;20119;-73
2021/11/19 11:27:25;;;;;;;8.88;6.85;;;;;;;9.03;45.49;95489.47;5073684;28;20039;-73
2021/11/19 11:30:08;;;;;;;13.50;7.80;;;;;;;9.02;45.18;95479.19;5091396;28;20042;-73
2021/11/19 11:32:58;;;;;;;13.23;9.27;;;;;;;9.02;45.27;95474.00;5074327;28;20020;-73
2021/11/19 11:35:54;;;;;;;12.77;6.35;;;;;;;8.92;44.64;95473.81;5058784;28;20402;-73
2021/11/19 11:38:44;;;;;;;8.45;6.55;;;;;;;8.86;44.75;95477.63;5074971;28;20071;-73
2021/11/19 11:41:16;;;;;;;9.65;6.63;;;;;;;8.82;44.80;95483.94;5089882;28;20036;-73
2021/11/19 11:43:43;;;;;;;10.07;7.43;;;;;;;8.81;45.05;95482.28;5056692;28;20032;-73
2021/11/19 11:46:29;;;;;;;10.55;6.47;;;;;;;8.81;45.13;95471.09;5072705;28;20034;-71